createdAt,value
2019-06-08T00:00:33.020Z,45.49
2019-06-08T00:01:18.196Z,45.48
2019-06-08T00:02:02.072Z,45.40
2019-06-08T00:02:44.881Z,45.57
2019-06-08T00:03:28.516Z,45.47
2019-06-08T00:04:12.937Z,45.43
2019-06-08T00:04:55.677Z,45.54
2019-06-08T00:05:39.133Z,45.34
2019-06-08T00:06:23.160Z,45.39
2019-06-08T00:07:06.196Z,45.31
2019-06-08T00:07:50.188Z,45.23
2019-06-08T00:08:33.778Z,45.46
2019-06-08T00:09:17.036Z,45.28
2019-06-08T00:10:00.958Z,45.41
2019-06-08T00:10:44.674Z,45.33
2019-06-08T00:11:27.534Z,45.35
2019-06-08T00:12:10.930Z,45.48
2019-06-08T00:12:54.518Z,45.29
2019-06-08T00:13:37.659Z,45.31
2019-06-08T00:14:21.486Z,45.24
2019-06-08T00:15:07.618Z,45.43
2019-06-08T00:15:50.370Z,45.23
2019-06-08T00:16:33.892Z,45.22
2019-06-08T00:17:31.349Z,45.33
2019-06-08T00:18:02.912Z,45.24
2019-06-08T00:18:46.726Z,45.25
2019-06-08T00:19:30.244Z,45.06
2019-06-08T00:20:15.347Z,45.12
2019-06-08T00:20:58.750Z,45.11
2019-06-08T00:21:42.361Z,45.25
2019-06-08T00:22:26.462Z,45.17
2019-06-08T00:23:10.407Z,45.31
2019-06-08T00:23:53.921Z,45.33
2019-06-08T00:24:36.981Z,45.31
2019-06-08T00:25:20.976Z,45.23
2019-06-08T00:26:05.912Z,45.24
2019-06-08T00:26:48.761Z,45.05
2019-06-08T00:27:32.150Z,45.22
2019-06-08T00:28:16.124Z,45.26
2019-06-08T00:28:59.215Z,45.16
2019-06-08T00:29:42.626Z,45.19
2019-06-08T00:30:26.156Z,44.98
2019-06-08T00:31:09.231Z,45.00
2019-06-08T00:31:52.832Z,45.05
2019-06-08T00:32:36.313Z,44.84
2019-06-08T00:33:19.076Z,44.78
2019-06-08T00:34:02.598Z,45.01
2019-06-08T00:34:45.815Z,45.02
2019-06-08T00:35:28.858Z,44.97
2019-06-08T00:36:12.345Z,45.17
2019-06-08T00:36:56.032Z,45.13
2019-06-08T00:37:39.212Z,44.93
2019-06-08T00:38:23.048Z,44.96
2019-06-08T00:39:09.491Z,44.92
2019-06-08T00:39:52.652Z,44.95
2019-06-08T00:40:36.368Z,44.86
2019-06-08T00:41:20.718Z,45.00
2019-06-08T00:42:04.932Z,44.73
2019-06-08T00:42:48.873Z,44.66
2019-06-08T00:43:32.455Z,44.92
2019-06-08T00:44:17.045Z,44.85
2019-06-08T00:45:00.935Z,44.84
2019-06-08T00:45:44.637Z,44.76
2019-06-08T00:46:27.730Z,44.79
2019-06-08T00:47:11.624Z,44.92
2019-06-08T00:47:55.027Z,44.86
2019-06-08T00:48:38.093Z,44.66
2019-06-08T00:49:22.618Z,44.77
2019-06-08T00:50:07.924Z,44.89
2019-06-08T00:50:50.792Z,44.71
2019-06-08T00:51:34.335Z,44.86
2019-06-08T00:52:18.910Z,44.90
2019-06-08T00:53:02.054Z,44.78
2019-06-08T00:53:45.437Z,44.56
2019-06-08T00:54:29.783Z,44.74
2019-06-08T00:55:12.789Z,44.85
2019-06-08T00:55:55.953Z,44.83
2019-06-08T00:56:39.659Z,44.64
2019-06-08T00:57:23.869Z,44.71
2019-06-08T00:58:07.346Z,44.76
2019-06-08T00:58:51.250Z,44.76
2019-06-08T00:59:34.477Z,44.89
2019-06-08T01:00:18.284Z,44.99
2019-06-08T01:01:01.886Z,44.83
2019-06-08T01:01:45.022Z,45.03
2019-06-08T01:02:28.865Z,44.91
2019-06-08T01:03:12.327Z,44.60
2019-06-08T01:03:55.370Z,44.48
2019-06-08T01:04:39.182Z,44.49
2019-06-08T01:05:24.001Z,44.84
2019-06-08T01:06:07.293Z,44.82
2019-06-08T01:06:50.675Z,44.78
2019-06-08T01:07:34.025Z,44.75
2019-06-08T01:08:17.339Z,44.62
2019-06-08T01:09:01.071Z,44.64
2019-06-08T01:09:44.612Z,44.76
2019-06-08T01:10:27.862Z,44.53
2019-06-08T01:11:11.421Z,44.68
2019-06-08T01:11:55.073Z,44.60
2019-06-08T01:12:38.403Z,44.49
2019-06-08T01:13:22.921Z,44.89
2019-06-08T01:14:06.837Z,44.61
2019-06-08T01:14:49.731Z,44.92
2019-06-08T01:15:34.469Z,44.64
2019-06-08T01:16:18.826Z,44.66
2019-06-08T01:17:02.110Z,44.58
2019-06-08T01:17:59.144Z,44.50
2019-06-08T01:18:31.444Z,44.66
2019-06-08T01:19:14.615Z,44.65
2019-06-08T01:19:58.057Z,44.63
2019-06-08T01:20:41.569Z,44.74
2019-06-08T01:21:25.596Z,44.43
2019-06-08T01:22:09.033Z,44.53
2019-06-08T01:22:52.766Z,44.78
2019-06-08T01:23:35.808Z,44.81
2019-06-08T01:24:19.765Z,44.71
2019-06-08T01:25:03.323Z,44.68
2019-06-08T01:25:46.186Z,44.80
2019-06-08T01:26:30.159Z,45.40
2019-06-08T01:27:14.864Z,44.40
2019-06-08T01:27:57.872Z,44.86
2019-06-08T01:28:41.779Z,44.64
2019-06-08T01:29:26.284Z,44.62
2019-06-08T01:30:09.401Z,44.41
2019-06-08T01:30:52.732Z,44.40
2019-06-08T01:31:35.974Z,44.41
2019-06-08T01:32:20.212Z,44.58
2019-06-08T01:33:03.918Z,44.50
2019-06-08T01:33:47.959Z,44.67
2019-06-08T01:34:31.063Z,44.34
2019-06-08T01:35:14.944Z,44.40
2019-06-08T01:35:58.640Z,44.83
2019-06-08T01:36:41.497Z,44.46
2019-06-08T01:37:25.022Z,44.64
2019-06-08T01:38:08.955Z,44.46
2019-06-08T01:38:52.135Z,44.71
2019-06-08T01:39:36.113Z,44.51
2019-06-08T01:40:21.187Z,44.62
2019-06-08T01:41:04.623Z,44.32
2019-06-08T01:41:48.388Z,44.50
2019-06-08T01:42:32.358Z,44.46
2019-06-08T01:43:14.942Z,44.12
2019-06-08T01:43:58.731Z,44.26
2019-06-08T01:44:41.936Z,44.48
2019-06-08T01:45:32.389Z,44.63
2019-06-08T01:46:16.068Z,44.54
2019-06-08T01:46:59.865Z,44.15
2019-06-08T01:47:42.879Z,44.51
2019-06-08T01:48:26.568Z,44.32
2019-06-08T01:49:10.284Z,44.47
2019-06-08T01:49:53.425Z,44.40
2019-06-08T01:50:36.983Z,44.11
2019-06-08T01:51:20.532Z,44.27
2019-06-08T01:52:03.564Z,44.54
2019-06-08T01:52:46.956Z,44.43
2019-06-08T01:53:31.162Z,44.56
2019-06-08T01:54:14.912Z,44.42
2019-06-08T01:54:58.386Z,44.42
2019-06-08T01:55:42.124Z,44.62
2019-06-08T01:56:25.250Z,44.70
2019-06-08T01:57:09.087Z,44.47
2019-06-08T01:57:52.599Z,44.31
2019-06-08T01:58:35.429Z,44.24
2019-06-08T01:59:19.330Z,44.40
2019-06-08T02:00:29.174Z,44.82
2019-06-08T02:00:49.503Z,44.07
2019-06-08T02:01:34.138Z,44.59
2019-06-08T02:02:18.180Z,44.47
2019-06-08T02:03:01.626Z,44.33
2019-06-08T02:03:45.179Z,44.40
2019-06-08T02:04:30.023Z,44.22
2019-06-08T02:05:13.440Z,44.21
2019-06-08T02:05:57.359Z,44.29
2019-06-08T02:06:41.142Z,44.42
2019-06-08T02:07:24.455Z,44.31
2019-06-08T02:08:07.557Z,44.67
2019-06-08T02:08:51.106Z,44.31
2019-06-08T02:09:34.876Z,44.11
2019-06-08T02:10:18.694Z,44.03
2019-06-08T02:11:03.173Z,44.21
2019-06-08T02:11:45.892Z,44.58
2019-06-08T02:12:29.295Z,44.43
2019-06-08T02:13:12.737Z,44.16
2019-06-08T02:13:55.864Z,44.34
2019-06-08T02:14:39.546Z,44.25
2019-06-08T02:15:22.915Z,44.30
2019-06-08T02:16:06.104Z,44.85
2019-06-08T02:16:50.346Z,44.27
2019-06-08T02:17:33.993Z,44.20
2019-06-08T02:18:16.739Z,44.40
2019-06-08T02:19:00.817Z,44.53
2019-06-08T02:19:44.222Z,44.65
2019-06-08T02:20:28.709Z,44.11
2019-06-08T02:21:12.433Z,44.20
2019-06-08T02:21:55.595Z,44.32
2019-06-08T02:22:39.394Z,44.28
2019-06-08T02:23:23.003Z,44.60
2019-06-08T02:24:06.695Z,44.74
2019-06-08T02:24:49.419Z,44.43
2019-06-08T02:25:33.533Z,44.43
2019-06-08T02:26:17.663Z,44.39
2019-06-08T02:27:00.692Z,44.46
2019-06-08T02:27:45.385Z,45.13
2019-06-08T02:28:29.440Z,44.56
2019-06-08T02:29:12.370Z,44.07
2019-06-08T02:29:56.096Z,44.48
2019-06-08T02:30:41.963Z,44.21
2019-06-08T02:31:24.752Z,44.55
2019-06-08T02:32:08.879Z,43.94
2019-06-08T02:32:52.253Z,44.24
2019-06-08T02:33:37.180Z,44.38
2019-06-08T02:34:20.779Z,44.09
2019-06-08T02:35:05.705Z,44.90
2019-06-08T02:35:48.898Z,44.47
2019-06-08T02:36:35.401Z,44.22
2019-06-08T02:37:18.860Z,44.31
2019-06-08T02:38:02.539Z,44.45
2019-06-08T02:38:46.723Z,44.39
2019-06-08T02:39:30.622Z,44.10
2019-06-08T02:40:13.592Z,44.08
2019-06-08T02:40:57.281Z,44.24
2019-06-08T02:41:40.847Z,44.26
2019-06-08T02:42:23.606Z,44.76
2019-06-08T02:43:07.359Z,44.11
2019-06-08T02:43:51.342Z,44.14
2019-06-08T02:44:34.929Z,45.13
2019-06-08T02:45:19.994Z,44.34
2019-06-08T02:46:03.463Z,44.19
2019-06-08T02:46:46.142Z,44.38
2019-06-08T02:47:30.439Z,45.14
2019-06-08T02:48:14.710Z,44.30
2019-06-08T02:49:04.129Z,43.72
2019-06-08T02:49:43.790Z,44.02
2019-06-08T02:50:47.460Z,43.88
2019-06-08T02:51:33.202Z,44.07
2019-06-08T02:52:16.375Z,44.32
2019-06-08T02:52:59.372Z,44.68
2019-06-08T02:53:43.419Z,44.60
2019-06-08T02:54:27.179Z,44.26
2019-06-08T02:55:10.209Z,44.22
2019-06-08T02:55:53.583Z,44.77
2019-06-08T02:56:39.331Z,44.65
2019-06-08T02:57:22.506Z,44.17
2019-06-08T02:58:06.283Z,44.04
2019-06-08T02:58:51.251Z,44.33
2019-06-08T02:59:40.581Z,44.26
2019-06-08T03:00:24.297Z,44.12
2019-06-08T03:01:08.210Z,43.86
2019-06-08T03:01:51.230Z,43.89
2019-06-08T03:02:36.358Z,43.65
2019-06-08T03:03:20.465Z,44.64
2019-06-08T03:04:03.803Z,44.65
2019-06-08T03:04:47.449Z,44.14
2019-06-08T03:05:31.891Z,44.05
2019-06-08T03:06:15.168Z,43.59
2019-06-08T03:06:58.624Z,44.06
2019-06-08T03:07:43.293Z,44.47
2019-06-08T03:08:26.413Z,44.03
2019-06-08T03:09:10.366Z,44.18
2019-06-08T03:09:55.556Z,44.27
2019-06-08T03:10:39.255Z,43.91
2019-06-08T03:11:23.073Z,44.26
2019-06-08T03:12:06.815Z,43.98
2019-06-08T03:12:50.068Z,43.84
2019-06-08T03:13:35.196Z,43.97
2019-06-08T03:14:20.417Z,43.88
2019-06-08T03:15:03.875Z,44.11
2019-06-08T03:15:47.294Z,43.80
2019-06-08T03:16:31.346Z,44.77
2019-06-08T03:17:14.706Z,43.81
2019-06-08T03:17:58.218Z,43.64
2019-06-08T03:18:42.709Z,43.57
2019-06-08T03:19:26.390Z,44.32
2019-06-08T03:20:11.006Z,44.58
2019-06-08T03:20:54.627Z,43.53
2019-06-08T03:21:38.859Z,44.13
2019-06-08T03:22:23.769Z,44.31
2019-06-08T03:23:07.117Z,45.02
2019-06-08T03:23:50.244Z,44.13
2019-06-08T03:24:34.520Z,43.80
2019-06-08T03:25:19.800Z,44.10
2019-06-08T03:26:03.226Z,44.61
2019-06-08T03:26:46.890Z,44.09
2019-06-08T03:27:32.480Z,44.26
2019-06-08T03:28:16.276Z,44.32
2019-06-08T03:28:59.641Z,44.09
2019-06-08T03:29:44.021Z,44.88
2019-06-08T03:30:27.098Z,43.62
2019-06-08T03:31:10.786Z,43.66
2019-06-08T03:31:56.895Z,44.19
2019-06-08T03:32:47.230Z,43.75
2019-06-08T03:33:24.922Z,44.38
2019-06-08T03:34:08.402Z,43.95
2019-06-08T03:34:56.302Z,43.57
2019-06-08T03:35:44.005Z,43.62
2019-06-08T03:36:22.724Z,43.61
2019-06-08T03:37:05.419Z,43.95
2019-06-08T03:37:48.834Z,44.97
2019-06-08T03:38:33.606Z,44.44
2019-06-08T03:39:16.742Z,44.30
2019-06-08T03:39:59.989Z,43.65
2019-06-08T03:40:45.307Z,43.99
2019-06-08T03:41:28.713Z,43.87
2019-06-08T03:42:12.102Z,44.30
2019-06-08T03:42:57.539Z,44.54
2019-06-08T03:43:42.294Z,44.84
2019-06-08T03:44:25.651Z,44.79
2019-06-08T03:45:09.439Z,44.91
2019-06-08T03:45:52.380Z,44.42
2019-06-08T03:46:36.415Z,44.81
2019-06-08T03:47:19.883Z,43.69
2019-06-08T03:48:02.984Z,43.64
2019-06-08T03:48:46.815Z,44.20
2019-06-08T03:49:42.996Z,43.83
2019-06-08T03:50:14.781Z,44.18
2019-06-08T03:50:58.120Z,44.03
2019-06-08T03:51:46.078Z,43.42
2019-06-08T03:52:27.361Z,44.27
2019-06-08T03:53:11.344Z,43.95
2019-06-08T03:53:55.083Z,43.29
2019-06-08T03:54:40.492Z,44.75
2019-06-08T03:55:24.328Z,43.97
2019-06-08T03:56:07.643Z,43.25
2019-06-08T03:56:51.010Z,43.83
2019-06-08T03:57:35.768Z,43.29
2019-06-08T03:58:19.541Z,43.82
2019-06-08T03:59:02.407Z,43.95
2019-06-08T03:59:47.623Z,43.79
2019-06-08T04:00:31.117Z,43.29
2019-06-08T04:01:13.967Z,43.31
2019-06-08T04:01:57.784Z,43.74
2019-06-08T04:02:42.326Z,43.78
2019-06-08T04:03:25.927Z,43.68
2019-06-08T04:04:09.558Z,43.48
2019-06-08T04:04:53.415Z,44.05
2019-06-08T04:05:37.951Z,43.45
2019-06-08T04:06:22.215Z,44.01
2019-06-08T04:07:05.948Z,43.65
2019-06-08T04:07:50.467Z,43.42
2019-06-08T04:08:33.754Z,43.45
2019-06-08T04:09:19.151Z,43.38
2019-06-08T04:10:01.729Z,43.65
2019-06-08T04:10:46.755Z,43.47
2019-06-08T04:11:30.823Z,43.73
2019-06-08T04:12:13.811Z,43.09
2019-06-08T04:12:57.863Z,44.43
2019-06-08T04:13:42.073Z,43.41
2019-06-08T04:14:24.854Z,43.83
2019-06-08T04:15:08.796Z,43.46
2019-06-08T04:15:52.955Z,44.30
2019-06-08T04:16:38.120Z,44.89
2019-06-08T04:17:21.361Z,45.36
2019-06-08T04:18:04.796Z,44.74
2019-06-08T04:18:47.641Z,44.74
2019-06-08T04:19:31.169Z,44.48
2019-06-08T04:20:14.786Z,44.09
2019-06-08T04:20:57.950Z,43.62
2019-06-08T04:21:41.874Z,43.90
2019-06-08T04:22:25.385Z,44.26
2019-06-08T04:23:08.410Z,43.39
2019-06-08T04:23:52.450Z,43.67
2019-06-08T04:24:36.061Z,43.47
2019-06-08T04:25:20.082Z,43.41
2019-06-08T04:26:03.885Z,43.27
2019-06-08T04:26:47.809Z,43.61
2019-06-08T04:27:31.144Z,43.68
2019-06-08T04:28:14.802Z,43.69
2019-06-08T04:28:58.623Z,43.59
2019-06-08T04:29:43.862Z,43.97
2019-06-08T04:30:27.905Z,44.38
2019-06-08T04:31:11.564Z,43.37
2019-06-08T04:31:54.952Z,43.35
2019-06-08T04:32:38.615Z,44.93
2019-06-08T04:33:22.097Z,44.12
2019-06-08T04:34:04.794Z,43.73
2019-06-08T04:34:49.997Z,43.21
2019-06-08T04:35:33.344Z,44.04
2019-06-08T04:36:16.269Z,43.37
2019-06-08T04:36:59.979Z,43.34
2019-06-08T04:37:44.754Z,44.48
2019-06-08T04:38:28.891Z,44.30
2019-06-08T04:39:12.884Z,44.70
2019-06-08T04:39:56.498Z,45.19
2019-06-08T04:40:40.056Z,44.50
2019-06-08T04:41:25.224Z,44.11
2019-06-08T04:42:08.875Z,44.83
2019-06-08T04:42:51.908Z,43.82
2019-06-08T04:43:35.905Z,44.42
2019-06-08T04:44:19.838Z,45.34
2019-06-08T04:45:02.435Z,44.51
2019-06-08T04:45:48.123Z,44.85
2019-06-08T04:46:31.792Z,45.48
2019-06-08T04:47:15.205Z,45.27
2019-06-08T04:47:58.497Z,44.15
2019-06-08T04:48:43.088Z,44.99
2019-06-08T04:49:27.045Z,44.24
2019-06-08T04:50:22.357Z,44.79
2019-06-08T04:50:56.442Z,44.98
2019-06-08T04:51:40.777Z,44.03
2019-06-08T04:52:24.406Z,43.37
2019-06-08T04:53:07.774Z,44.03
2019-06-08T04:53:51.127Z,44.13
2019-06-08T04:54:34.984Z,44.53
2019-06-08T04:55:18.493Z,44.77
2019-06-08T04:56:01.263Z,44.39
2019-06-08T04:56:44.952Z,44.87
2019-06-08T04:57:28.800Z,44.54
2019-06-08T04:58:11.888Z,44.20
2019-06-08T04:58:55.690Z,43.61
2019-06-08T04:59:41.131Z,44.95
2019-06-08T05:00:24.243Z,44.03
2019-06-08T05:01:07.939Z,43.57
2019-06-08T05:01:51.649Z,43.58
2019-06-08T05:02:34.730Z,43.43
2019-06-08T05:03:18.370Z,44.12
2019-06-08T05:04:01.676Z,45.05
2019-06-08T05:04:45.341Z,44.40
2019-06-08T05:05:28.927Z,43.67
2019-06-08T05:06:12.380Z,43.65
2019-06-08T05:06:55.445Z,43.84
2019-06-08T05:07:39.400Z,43.68
2019-06-08T05:08:24.136Z,43.51
2019-06-08T05:09:08.182Z,44.54
2019-06-08T05:09:51.451Z,45.10
2019-06-08T05:10:35.331Z,44.30
2019-06-08T05:11:18.350Z,44.10
2019-06-08T05:12:02.136Z,44.15
2019-06-08T05:12:47.759Z,43.63
2019-06-08T05:13:30.483Z,43.33
2019-06-08T05:14:14.768Z,43.10
2019-06-08T05:14:58.350Z,43.42
2019-06-08T05:15:41.522Z,42.29
2019-06-08T05:16:25.466Z,42.50
2019-06-08T05:17:09.004Z,42.98
2019-06-08T05:17:52.142Z,44.63
2019-06-08T05:18:35.385Z,43.10
2019-06-08T05:19:18.847Z,43.27
2019-06-08T05:20:02.108Z,43.83
2019-06-08T05:20:49.120Z,43.21
2019-06-08T05:21:31.448Z,42.52
2019-06-08T05:22:14.424Z,44.01
2019-06-08T05:22:58.184Z,44.05
2019-06-08T05:23:43.412Z,43.78
2019-06-08T05:24:28.198Z,43.70
2019-06-08T05:25:12.119Z,44.15
2019-06-08T05:25:55.539Z,43.41
2019-06-08T05:26:39.235Z,44.68
2019-06-08T05:27:23.011Z,44.19
2019-06-08T05:28:06.538Z,44.33
2019-06-08T05:28:49.715Z,42.63
2019-06-08T05:29:33.598Z,43.07
2019-06-08T05:30:17.483Z,42.85
2019-06-08T05:31:00.439Z,42.54
2019-06-08T05:31:45.500Z,43.81
2019-06-08T05:32:29.302Z,42.75
2019-06-08T05:33:12.179Z,42.85
2019-06-08T05:33:55.574Z,43.69
2019-06-08T05:34:39.384Z,42.41
2019-06-08T05:35:22.615Z,43.78
2019-06-08T05:36:06.083Z,43.98
2019-06-08T05:36:50.008Z,43.26
2019-06-08T05:37:33.536Z,43.18
2019-06-08T05:38:17.036Z,43.77
2019-06-08T05:39:00.869Z,43.66
2019-06-08T05:39:44.018Z,44.50
2019-06-08T05:40:27.671Z,43.86
2019-06-08T05:41:11.384Z,43.04
2019-06-08T05:41:54.870Z,43.79
2019-06-08T05:42:40.618Z,43.53
2019-06-08T05:43:24.297Z,43.04
2019-06-08T05:44:07.518Z,42.10
2019-06-08T05:44:51.206Z,41.40
2019-06-08T05:45:34.724Z,43.63
2019-06-08T05:46:18.072Z,43.34
2019-06-08T05:47:01.671Z,42.79
2019-06-08T05:47:45.793Z,43.05
2019-06-08T05:48:28.948Z,42.98
2019-06-08T05:49:12.758Z,42.64
2019-06-08T05:49:56.590Z,42.16
2019-06-08T05:50:54.652Z,42.26
2019-06-08T05:51:25.092Z,43.62
2019-06-08T05:52:08.639Z,43.46
2019-06-08T05:52:51.945Z,42.92
2019-06-08T05:53:35.692Z,41.44
2019-06-08T05:54:19.360Z,40.73
2019-06-08T05:55:02.750Z,39.79
2019-06-08T05:55:46.216Z,42.90
2019-06-08T05:56:29.782Z,42.96
2019-06-08T05:57:12.686Z,42.35
2019-06-08T05:57:56.182Z,42.73
2019-06-08T05:58:39.895Z,42.48
2019-06-08T05:59:23.097Z,42.60
2019-06-08T06:00:10.997Z,41.68
2019-06-08T06:00:54.418Z,42.13
2019-06-08T06:01:37.246Z,41.96
2019-06-08T06:02:20.356Z,42.36
2019-06-08T06:03:03.886Z,42.87
2019-06-08T06:03:46.866Z,43.30
2019-06-08T06:04:30.403Z,43.30
2019-06-08T06:05:14.964Z,42.22
2019-06-08T06:05:57.977Z,42.19
2019-06-08T06:06:42.350Z,43.62
2019-06-08T06:07:26.127Z,42.28
2019-06-08T06:08:18.489Z,42.39
2019-06-08T06:08:54.195Z,43.26
2019-06-08T06:09:37.888Z,42.74
2019-06-08T06:10:21.143Z,43.55
2019-06-08T06:11:51.148Z,42.48
2019-06-08T06:12:34.649Z,42.74
2019-06-08T06:13:18.434Z,43.38
2019-06-08T06:14:02.441Z,43.01
2019-06-08T06:14:46.834Z,43.19
2019-06-08T06:15:30.342Z,42.80
2019-06-08T06:16:14.956Z,42.62
2019-06-08T06:16:58.094Z,43.66
2019-06-08T06:17:43.955Z,42.34
2019-06-08T06:18:27.770Z,42.70
2019-06-08T06:19:10.745Z,43.06
2019-06-08T06:19:54.296Z,43.04
2019-06-08T06:20:37.756Z,43.04
2019-06-08T06:21:20.917Z,43.26
2019-06-08T06:22:04.700Z,42.94
2019-06-08T06:22:49.501Z,42.80
2019-06-08T06:23:33.016Z,42.34
2019-06-08T06:24:16.871Z,43.25
2019-06-08T06:25:00.619Z,42.41
2019-06-08T06:25:43.854Z,43.32
2019-06-08T06:26:27.265Z,43.37
2019-06-08T06:27:10.684Z,43.53
2019-06-08T06:27:53.537Z,41.65
2019-06-08T06:28:36.896Z,42.86
2019-06-08T06:29:20.670Z,42.62
2019-06-08T06:30:06.139Z,41.98
2019-06-08T06:30:50.236Z,42.25
2019-06-08T06:31:33.617Z,42.87
2019-06-08T06:32:16.651Z,42.04
2019-06-08T06:33:00.102Z,42.50
2019-06-08T06:33:43.904Z,42.42
2019-06-08T06:34:27.000Z,42.04
2019-06-08T06:35:10.526Z,42.40
2019-06-08T06:35:53.768Z,42.85
2019-06-08T06:36:36.446Z,42.46
2019-06-08T06:37:19.971Z,42.29
2019-06-08T06:38:03.847Z,42.71
2019-06-08T06:38:48.213Z,42.69
2019-06-08T06:39:32.269Z,42.91
2019-06-08T06:40:15.829Z,43.17
2019-06-08T06:40:59.079Z,42.85
2019-06-08T06:41:44.047Z,41.43
2019-06-08T06:42:27.680Z,41.74
2019-06-08T06:43:10.587Z,42.55
2019-06-08T06:43:54.137Z,42.36
2019-06-08T06:44:37.621Z,41.78
2019-06-08T06:45:21.001Z,42.19
2019-06-08T06:46:04.649Z,41.66
2019-06-08T06:46:48.305Z,42.53
2019-06-08T06:47:31.459Z,42.70
2019-06-08T06:48:15.066Z,43.01
2019-06-08T06:48:58.856Z,42.15
2019-06-08T06:49:42.374Z,43.04
2019-06-08T06:50:26.141Z,43.14
2019-06-08T06:51:24.989Z,42.95
2019-06-08T06:51:54.991Z,42.51
2019-06-08T06:52:39.080Z,42.72
2019-06-08T06:53:22.350Z,42.41
2019-06-08T06:54:05.680Z,41.90
2019-06-08T06:54:49.196Z,42.26
2019-06-08T06:55:33.173Z,42.87
2019-06-08T06:56:15.865Z,42.98
2019-06-08T06:56:59.660Z,43.31
2019-06-08T06:57:43.605Z,42.36
2019-06-08T06:58:26.955Z,41.91
2019-06-08T06:59:10.801Z,41.99
2019-06-08T06:59:54.473Z,42.34
2019-06-08T07:00:37.320Z,41.47
2019-06-08T07:01:21.149Z,42.40
2019-06-08T07:02:04.877Z,42.58
2019-06-08T07:02:47.919Z,42.37
2019-06-08T07:03:31.657Z,42.42
2019-06-08T07:04:15.343Z,42.58
2019-06-08T07:04:57.987Z,42.81
2019-06-08T07:05:41.782Z,42.55
2019-06-08T07:06:25.551Z,42.31
2019-06-08T07:07:08.508Z,42.04
2019-06-08T07:07:52.431Z,41.97
2019-06-08T07:08:36.006Z,42.63
2019-06-08T07:09:19.258Z,42.04
2019-06-08T07:10:02.715Z,42.74
2019-06-08T07:10:46.559Z,42.55
2019-06-08T07:11:29.463Z,42.63
2019-06-08T07:12:13.083Z,43.03
2019-06-08T07:12:56.206Z,42.45
2019-06-08T07:13:39.275Z,42.89
2019-06-08T07:14:23.009Z,41.94
2019-06-08T07:15:07.601Z,42.27
2019-06-08T07:15:52.962Z,42.50
2019-06-08T07:16:35.955Z,42.75
2019-06-08T07:17:19.422Z,42.00
2019-06-08T07:18:02.466Z,42.83
2019-06-08T07:18:46.383Z,42.16
2019-06-08T07:19:29.897Z,42.36
2019-06-08T07:20:12.749Z,42.50
2019-06-08T07:20:56.539Z,42.71
2019-06-08T07:21:41.970Z,43.30
2019-06-08T07:22:25.603Z,43.35
2019-06-08T07:23:09.172Z,43.42
2019-06-08T07:23:54.538Z,43.05
2019-06-08T07:24:37.776Z,42.87
2019-06-08T07:25:21.539Z,42.17
2019-06-08T07:26:05.090Z,42.34
2019-06-08T07:26:48.246Z,41.61
2019-06-08T07:27:32.227Z,42.29
2019-06-08T07:28:16.123Z,42.78
2019-06-08T07:28:59.445Z,41.75
2019-06-08T07:29:42.898Z,41.81
2019-06-08T07:30:26.528Z,42.20
2019-06-08T07:31:09.842Z,41.38
2019-06-08T07:31:53.467Z,41.55
2019-06-08T07:32:36.769Z,41.03
2019-06-08T07:33:19.956Z,40.86
2019-06-08T07:34:03.687Z,42.03
2019-06-08T07:34:47.892Z,42.42
2019-06-08T07:35:32.469Z,41.96
2019-06-08T07:36:16.332Z,41.51
2019-06-08T07:36:59.868Z,42.01
2019-06-08T07:37:42.704Z,42.24
2019-06-08T07:38:26.222Z,41.80
2019-06-08T07:39:09.627Z,41.48
2019-06-08T07:39:53.576Z,41.97
2019-06-08T07:40:37.333Z,42.67
2019-06-08T07:41:21.028Z,42.67
2019-06-08T07:42:03.892Z,42.90
2019-06-08T07:42:47.869Z,42.61
2019-06-08T07:43:32.597Z,41.82
2019-06-08T07:44:15.490Z,41.19
2019-06-08T07:45:00.391Z,42.24
2019-06-08T07:45:44.320Z,42.86
2019-06-08T07:46:27.639Z,42.61
2019-06-08T07:47:11.500Z,42.82
2019-06-08T07:47:56.079Z,42.56
2019-06-08T07:48:39.540Z,41.86
2019-06-08T07:49:23.180Z,41.95
2019-06-08T07:50:07.173Z,41.91
2019-06-08T07:50:50.358Z,42.41
2019-06-08T07:51:33.975Z,42.60
2019-06-08T07:52:17.723Z,42.64
2019-06-08T07:53:00.376Z,42.84
2019-06-08T07:53:44.058Z,41.67
2019-06-08T07:54:27.324Z,42.43
2019-06-08T07:55:10.315Z,42.14
2019-06-08T07:55:54.038Z,42.22
2019-06-08T07:56:37.901Z,42.49
2019-06-08T07:57:21.081Z,42.34
2019-06-08T07:58:05.010Z,42.14
2019-06-08T07:58:50.079Z,41.59
2019-06-08T07:59:33.210Z,42.27
2019-06-08T08:00:16.761Z,42.47
2019-06-08T08:01:07.639Z,42.39
2019-06-08T08:01:45.260Z,42.15
2019-06-08T08:02:28.949Z,42.12
2019-06-08T08:03:12.119Z,41.83
2019-06-08T08:03:56.216Z,41.97
2019-06-08T08:04:39.582Z,42.38
2019-06-08T08:05:23.287Z,41.95
2019-06-08T08:06:06.438Z,42.29
2019-06-08T08:06:50.370Z,41.87
2019-06-08T08:07:33.825Z,42.06
2019-06-08T08:08:16.563Z,42.03
2019-06-08T08:08:59.940Z,42.20
2019-06-08T08:09:43.748Z,42.58
2019-06-08T08:10:27.026Z,42.43
2019-06-08T08:11:10.916Z,42.46
2019-06-08T08:11:55.229Z,41.98
2019-06-08T08:12:38.566Z,42.56
2019-06-08T08:13:22.219Z,42.61
2019-06-08T08:14:05.797Z,41.51
2019-06-08T08:14:49.256Z,41.72
2019-06-08T08:15:32.776Z,42.65
2019-06-08T08:16:16.289Z,42.71
2019-06-08T08:16:59.348Z,42.32
2019-06-08T08:17:43.161Z,42.40
2019-06-08T08:18:27.059Z,42.48
2019-06-08T08:19:10.201Z,41.79
2019-06-08T08:19:55.158Z,42.05
2019-06-08T08:20:39.207Z,42.64
2019-06-08T08:21:26.200Z,42.67
2019-06-08T08:22:21.935Z,42.24
2019-06-08T08:22:57.965Z,42.73
2019-06-08T08:23:38.300Z,42.23
2019-06-08T08:24:21.693Z,41.24
2019-06-08T08:25:08.502Z,42.25
2019-06-08T08:25:51.511Z,42.15
2019-06-08T08:26:35.323Z,42.19
2019-06-08T08:27:19.211Z,42.52
2019-06-08T08:28:01.951Z,42.47
2019-06-08T08:28:48.361Z,42.26
2019-06-08T08:29:31.421Z,41.52
2019-06-08T08:30:17.348Z,41.78
2019-06-08T08:31:02.028Z,41.88
2019-06-08T08:31:45.199Z,42.55
2019-06-08T08:32:28.399Z,42.45
2019-06-08T08:33:11.761Z,42.20
2019-06-08T08:33:55.839Z,42.50
2019-06-08T08:34:40.062Z,41.97
2019-06-08T08:35:23.262Z,42.29
2019-06-08T08:36:07.300Z,42.82
2019-06-08T08:36:51.116Z,42.12
2019-06-08T08:37:35.425Z,42.23
2019-06-08T08:38:18.887Z,41.96
2019-06-08T08:39:02.597Z,42.04
2019-06-08T08:39:47.388Z,42.03
2019-06-08T08:40:31.526Z,42.13
2019-06-08T08:41:14.755Z,41.04
2019-06-08T08:42:04.379Z,41.33
2019-06-08T08:42:43.365Z,41.67
2019-06-08T08:43:28.029Z,41.76
2019-06-08T08:44:11.693Z,41.72
2019-06-08T08:44:56.224Z,42.02
2019-06-08T08:45:40.537Z,41.31
2019-06-08T08:46:23.833Z,41.52
2019-06-08T08:47:07.634Z,41.18
2019-06-08T08:47:53.341Z,42.13
2019-06-08T08:48:37.743Z,41.99
2019-06-08T08:49:21.529Z,42.25
2019-06-08T08:50:07.289Z,42.01
2019-06-08T08:50:51.226Z,42.25
2019-06-08T08:51:37.840Z,41.35
2019-06-08T08:52:33.632Z,42.05
2019-06-08T08:53:05.130Z,42.10
2019-06-08T08:53:53.815Z,42.33
2019-06-08T08:54:33.243Z,41.93
2019-06-08T08:55:20.273Z,42.52
2019-06-08T08:56:02.646Z,42.02
2019-06-08T08:56:50.385Z,41.64
2019-06-08T08:57:30.949Z,41.77
2019-06-08T08:58:15.313Z,42.12
2019-06-08T08:59:00.954Z,42.41
2019-06-08T08:59:44.299Z,41.13
2019-06-08T09:00:28.737Z,42.20
2019-06-08T09:01:11.707Z,41.84
2019-06-08T09:01:55.253Z,41.57
2019-06-08T09:02:39.069Z,41.28
2019-06-08T09:03:29.022Z,41.55
2019-06-08T09:04:08.762Z,41.94
2019-06-08T09:04:53.461Z,41.95
2019-06-08T09:05:38.166Z,41.53
2019-06-08T09:06:21.892Z,41.79
2019-06-08T09:07:09.600Z,41.78
2019-06-08T09:07:52.051Z,41.73
2019-06-08T09:08:37.558Z,42.62
2019-06-08T09:09:21.644Z,41.94
2019-06-08T09:10:08.559Z,41.84
2019-06-08T09:10:52.314Z,42.14
2019-06-08T09:11:38.337Z,41.88
2019-06-08T09:12:22.136Z,41.62
2019-06-08T09:13:09.253Z,42.14
2019-06-08T09:13:52.383Z,41.98
2019-06-08T09:14:38.628Z,42.36
2019-06-08T09:15:20.676Z,43.11
2019-06-08T09:16:04.630Z,41.72
2019-06-08T09:16:48.265Z,41.96
2019-06-08T09:17:31.956Z,42.96
2019-06-08T09:18:15.668Z,42.61
2019-06-08T09:19:02.132Z,42.65
2019-06-08T09:19:44.021Z,42.19
2019-06-08T09:20:28.578Z,42.46
2019-06-08T09:21:11.949Z,42.60
2019-06-08T09:21:56.728Z,43.38
2019-06-08T09:22:52.573Z,43.12
2019-06-08T09:23:28.052Z,42.76
2019-06-08T09:24:11.907Z,43.11
2019-06-08T09:24:56.864Z,42.96
2019-06-08T09:25:40.913Z,43.37